Time;durP1;ratioP1;P1;durP2;ratioP2;P2;SDS_P1;SDS_P2;PMS_P1;PMS_P2;Temp;Humidity;BMP_temperature;BMP_pressure;BME280_temperature;BME280_humidity;BME280_pressure;Samples;Min_cycle;Max_cycle;Signal;HPM_P1;HPM_P2
2022/08/22 00:01:35;;;;;;;5.67;5.03;;;23.50;45.00;;;;;;5076866;28;20978;-88
2022/08/22 00:04:13;;;;;;;5.27;4.63;;;23.50;45.30;;;;;;5052888;28;20450;-88
2022/08/22 00:06:49;;;;;;;5.03;4.07;;;23.40;45.20;;;;;;5085427;28;20451;-87
2022/08/22 00:09:31;;;;;;;7.03;6.07;;;23.40;45.10;;;;;;5077740;28;20538;-88
2022/08/22 00:12:07;;;;;;;7.07;5.00;;;23.40;45.40;;;;;;5050027;28;20462;-88
2022/08/22 00:14:40;;;;;;;5.17;4.67;;;23.30;45.30;;;;;;5052791;28;20478;-88
2022/08/22 00:17:25;;;;;;;5.17;4.67;;;23.30;45.40;;;;;;5069786;28;20448;-90
2022/08/22 00:19:59;;;;;;;5.80;5.23;;;23.20;45.50;;;;;;5076372;28;20978;-89
2022/08/22 00:22:35;;;;;;;5.40;4.90;;;23.20;45.70;;;;;;5094404;28;20996;-89
2022/08/22 00:25:15;;;;;;;4.83;4.43;;;23.20;45.60;;;;;;5091655;28;20455;-87
2022/08/22 00:27:49;;;;;;;5.97;5.20;;;23.10;45.60;;;;;;5061142;28;20459;-87
2022/08/22 00:30:17;;;;;;;6.43;5.07;;;23.10;45.70;;;;;;5079412;28;20447;-87
2022/08/22 00:32:49;;;;;;;6.57;5.70;;;23.10;45.70;;;;;;5070922;28;20483;-88
2022/08/22 00:35:25;;;;;;;5.80;5.27;;;23.00;45.90;;;;;;5056832;28;20454;-88
2022/08/22 00:38:01;;;;;;;5.60;5.10;;;22.90;45.70;;;;;;5095662;28;20470;-88
2022/08/22 00:40:41;;;;;;;5.10;4.40;;;22.90;45.80;;;;;;5096432;28;20998;-88
2022/08/22 00:43:33;;;;;;;6.97;5.90;;;22.90;45.60;;;;;;5057193;28;20455;-86
2022/08/22 00:46:14;;;;;;;5.90;5.03;;;22.90;45.70;;;;;;5098151;28;20942;-87
2022/08/22 00:49:14;;;;;;;7.27;6.10;;;22.90;45.80;;;;;;5100806;28;20812;-88
2022/08/22 00:52:17;;;;;;;5.73;5.07;;;22.80;45.90;;;;;;5083746;28;20470;-90
2022/08/22 00:55:01;;;;;;;7.13;5.97;;;22.80;45.80;;;;;;5079440;28;20443;-88
2022/08/22 00:57:55;;;;;;;8.73;5.70;;;22.70;46.00;;;;;;5081293;28;20451;-88
2022/08/22 01:00:25;;;;;;;6.27;5.63;;;22.70;46.30;;;;;;5080698;28;20455;-87
2022/08/22 01:03:19;;;;;;;6.00;5.47;;;22.60;46.40;;;;;;5080238;28;20505;-88
2022/08/22 01:06:04;;;;;;;6.30;5.50;;;22.60;46.50;;;;;;5057180;28;20444;-88
2022/08/22 01:08:46;;;;;;;7.20;4.80;;;22.60;46.70;;;;;;5074085;28;20447;-87
2022/08/22 01:11:30;;;;;;;5.83;5.33;;;22.60;46.90;;;;;;5101180;28;20467;-88
2022/08/22 01:14:14;;;;;;;7.93;5.47;;;22.50;46.80;;;;;;5078734;28;20451;-87
2022/08/22 01:17:05;;;;;;;8.20;5.10;;;22.50;46.60;;;;;;5063899;28;20779;-88
2022/08/22 01:20:16;;;;;;;6.50;5.47;;;22.50;46.50;;;;;;5069426;28;20482;-87
2022/08/22 01:23:24;;;;;;;8.60;5.43;;;22.50;46.70;;;;;;5071037;28;20994;-88
2022/08/22 01:26:49;;;;;;;6.60;5.30;;;22.40;47.20;;;;;;5071076;28;20848;-88
2022/08/22 01:29:44;;;;;;;5.53;4.90;;;22.40;47.50;;;;;;5078372;28;20458;-88
2022/08/22 01:32:40;;;;;;;8.03;5.23;;;22.40;48.00;;;;;;5074650;28;20463;-90
2022/08/22 01:35:28;;;;;;;5.30;4.73;;;22.30;48.10;;;;;;5036655;28;20455;-89
2022/08/22 01:38:13;;;;;;;9.60;4.80;;;22.30;47.90;;;;;;5047550;28;20926;-88
2022/08/22 01:41:22;;;;;;;6.40;5.80;;;22.20;47.60;;;;;;5085914;28;20452;-88
2022/08/22 01:44:13;;;;;;;6.10;5.50;;;22.20;47.50;;;;;;5007071;28;21155;-88
2022/08/22 01:46:57;;;;;;;6.57;5.43;;;22.10;47.40;;;;;;5070829;28;20473;-89
2022/08/22 01:49:31;;;;;;;8.63;5.00;;;22.10;47.60;;;;;;5047897;28;20447;-89
2022/08/22 01:52:06;;;;;;;6.17;5.47;;;22.10;47.70;;;;;;5078230;28;20561;-90
2022/08/22 01:54:47;;;;;;;7.73;5.40;;;22.00;48.10;;;;;;5052064;28;20494;-89
2022/08/22 01:57:15;;;;;;;6.60;5.90;;;22.00;48.20;;;;;;5046637;28;20482;-90
2022/08/22 01:59:47;;;;;;;7.27;5.87;;;22.00;48.10;;;;;;5057328;28;20449;-90
2022/08/22 02:02:32;;;;;;;7.17;5.20;;;22.00;47.90;;;;;;5066164;28;20546;-89
2022/08/22 02:05:06;;;;;;;7.00;5.07;;;22.00;47.90;;;;;;5063468;28;20450;-89
2022/08/22 02:07:48;;;;;;;6.60;5.13;;;21.90;47.70;;;;;;5047224;28;20457;-89
2022/08/22 02:10:20;;;;;;;8.10;5.10;;;21.90;47.80;;;;;;5053910;28;20443;-89
2022/08/22 02:13:02;;;;;;;6.13;5.50;;;21.90;47.70;;;;;;5056893;28;20469;-89
2022/08/22 02:15:43;;;;;;;7.40;6.00;;;21.80;47.80;;;;;;5055322;28;20446;-89
2022/08/22 02:18:17;;;;;;;6.57;5.60;;;21.80;48.00;;;;;;5056999;28;20451;-91
2022/08/22 02:20:59;;;;;;;6.47;5.07;;;21.80;48.10;;;;;;5070638;28;20475;-89
2022/08/22 02:23:35;;;;;;;6.80;5.57;;;21.80;48.20;;;;;;5062846;28;20503;-91
2022/08/22 02:26:07;;;;;;;8.33;5.70;;;21.80;48.50;;;;;;5048780;28;20459;-92
2022/08/22 02:28:43;;;;;;;6.20;5.60;;;21.70;48.70;;;;;;5068443;28;20447;-89
2022/08/22 02:31:15;;;;;;;7.60;5.47;;;21.70;49.00;;;;;;5071872;28;20609;-89
2022/08/22 02:33:51;;;;;;;6.23;5.50;;;21.70;49.00;;;;;;5057580;28;20482;-90
2022/08/22 02:36:24;;;;;;;7.93;6.33;;;21.70;49.20;;;;;;5079625;28;20446;-89
2022/08/22 02:39:02;;;;;;;10.33;5.87;;;21.70;49.20;;;;;;5056188;28;20448;-88
2022/08/22 02:41:36;;;;;;;7.63;6.30;;;21.60;49.10;;;;;;5070013;28;20495;-90
2022/08/22 02:44:15;;;;;;;9.83;5.00;;;21.60;49.20;;;;;;5049922;28;20475;-89
2022/08/22 02:46:53;;;;;;;6.67;6.00;;;21.50;49.00;;;;;;5051148;28;20815;-88
2022/08/22 02:49:25;;;;;;;7.40;6.70;;;21.40;49.10;;;;;;5052527;28;20519;-88
2022/08/22 02:51:58;;;;;;;8.00;6.37;;;21.40;49.20;;;;;;5080965;28;20472;-88
2022/08/22 02:54:35;;;;;;;6.00;5.50;;;21.40;49.10;;;;;;5041261;28;20443;-89
2022/08/22 02:57:12;;;;;;;8.77;5.90;;;21.30;48.90;;;;;;5086863;28;20448;-89
2022/08/22 03:00:03;;;;;;;6.00;5.40;;;21.40;49.00;;;;;;5064135;28;20450;-87
2022/08/22 03:02:35;;;;;;;8.73;6.20;;;21.40;48.90;;;;;;5082054;28;20536;-88
2022/08/22 03:05:17;;;;;;;6.87;6.17;;;21.40;49.00;;;;;;5075484;28;20448;-87
2022/08/22 03:07:49;;;;;;;9.53;6.07;;;21.40;48.70;;;;;;5073613;28;20556;-87
2022/08/22 03:10:26;;;;;;;6.23;5.60;;;21.40;48.30;;;;;;5067827;28;20453;-88
2022/08/22 03:13:02;;;;;;;7.53;5.80;;;21.30;47.90;;;;;;5066504;28;20466;-89
2022/08/22 03:15:36;;;;;;;6.93;6.23;;;21.30;47.90;;;;;;5067052;28;20448;-87
2022/08/22 03:18:14;;;;;;;9.17;7.30;;;21.30;48.40;;;;;;5049618;28;20460;-88
2022/08/22 03:20:46;;;;;;;7.40;5.60;;;21.30;49.10;;;;;;5063949;28;20461;-90
2022/08/22 03:23:21;;;;;;;7.47;5.47;;;21.20;49.20;;;;;;5044981;28;20479;-88
2022/08/22 03:25:56;;;;;;;7.83;6.10;;;21.20;49.00;;;;;;5049635;28;20946;-87
2022/08/22 03:28:30;;;;;;;6.73;5.57;;;21.20;49.70;;;;;;5076498;28;20465;-87
2022/08/22 03:31:00;;;;;;;8.20;6.53;;;21.10;49.60;;;;;;5078376;28;20428;-88
2022/08/22 03:33:29;;;;;;;6.37;5.73;;;21.10;49.40;;;;;;5078681;28;20469;-87
2022/08/22 03:36:10;;;;;;;7.97;6.37;;;21.10;49.30;;;;;;5082215;28;21012;-88
2022/08/22 03:38:48;;;;;;;9.87;7.80;;;21.00;49.50;;;;;;5077568;28;20454;-87
2022/08/22 03:41:42;;;;;;;6.73;5.90;;;21.00;49.70;;;;;;5079055;28;20452;-87
2022/08/22 03:44:33;;;;;;;7.53;5.20;;;21.00;49.90;;;;;;5069967;28;20450;-88
2022/08/22 03:47:26;;;;;;;7.97;6.23;;;21.00;50.00;;;;;;5054798;28;20455;-90
2022/08/22 03:50:26;;;;;;;6.30;5.37;;;21.00;50.60;;;;;;5072501;28;20532;-86
2022/08/22 03:53:20;;;;;;;6.43;5.57;;;20.90;49.60;;;;;;5066194;28;20565;-87
2022/08/22 03:56:26;;;;;;;6.27;5.67;;;20.90;49.40;;;;;;5053491;28;20562;-87
2022/08/22 03:59:28;;;;;;;6.40;5.40;;;20.90;49.70;;;;;;5067026;28;20462;-91
2022/08/22 04:02:35;;;;;;;6.83;6.13;;;20.90;50.20;;;;;;5072400;28;20475;-87
2022/08/22 04:05:32;;;;;;;6.53;5.90;;;20.80;50.30;;;;;;4983883;28;20479;-87
2022/08/22 04:08:28;;;;;;;7.00;6.30;;;20.80;50.10;;;;;;5077933;28;20444;-88
2022/08/22 04:11:30;;;;;;;9.73;5.80;;;20.70;49.70;;;;;;5088200;28;20455;-88
2022/08/22 04:14:17;;;;;;;6.77;6.10;;;20.60;49.90;;;;;;5079308;28;20946;-93
2022/08/22 04:17:20;;;;;;;6.50;5.90;;;20.40;50.90;;;;;;5067245;28;20450;-86
2022/08/22 04:20:13;;;;;;;7.83;5.87;;;20.40;51.60;;;;;;5084739;28;21337;-89
2022/08/22 04:23:08;;;;;;;6.10;5.50;;;20.50;51.10;;;;;;5092637;28;20482;-87
2022/08/22 04:25:39;;;;;;;6.30;5.53;;;20.50;50.60;;;;;;5088154;28;20485;-85
2022/08/22 04:28:13;;;;;;;5.97;5.37;;;20.50;50.30;;;;;;5092537;28;20451;-86
2022/08/22 04:30:46;;;;;;;8.67;6.60;;;20.40;50.00;;;;;;5088783;28;20458;-86
2022/08/22 04:33:21;;;;;;;10.60;6.60;;;20.50;49.80;;;;;;5072587;28;20531;-85
2022/08/22 04:36:01;;;;;;;6.50;5.90;;;20.50;50.00;;;;;;5072227;28;21244;-86
2022/08/22 04:38:33;;;;;;;6.27;5.77;;;20.50;49.70;;;;;;5091242;28;20466;-86
2022/08/22 04:41:05;;;;;;;7.20;5.40;;;20.50;49.90;;;;;;5091194;28;20447;-86
2022/08/22 04:43:39;;;;;;;6.77;6.07;;;20.40;50.50;;;;;;5069174;28;20475;-86
2022/08/22 04:46:13;;;;;;;6.67;5.97;;;20.40;50.70;;;;;;5092189;28;21123;-87
2022/08/22 04:48:50;;;;;;;7.03;6.33;;;20.40;51.00;;;;;;5074989;28;20446;-88
2022/08/22 04:51:24;;;;;;;7.83;6.53;;;20.40;51.00;;;;;;5091553;28;20490;-87
2022/08/22 04:54:15;;;;;;;8.90;5.37;;;20.40;51.30;;;;;;5092244;28;20996;-87
2022/08/22 04:56:54;;;;;;;7.33;5.53;;;20.40;51.20;;;;;;5073020;28;20443;-86
2022/08/22 04:59:24;;;;;;;6.70;5.73;;;20.40;51.00;;;;;;5089137;28;21371;-84
2022/08/22 05:01:54;;;;;;;7.07;6.37;;;20.50;50.90;;;;;;5069253;28;20497;-85
2022/08/22 05:04:27;;;;;;;7.10;6.43;;;20.50;51.30;;;;;;5069454;28;20446;-86
2022/08/22 05:06:59;;;;;;;6.43;5.83;;;20.50;51.50;;;;;;5092034;28;21070;-87
2022/08/22 05:09:30;;;;;;;7.70;6.63;;;20.50;51.80;;;;;;5090644;28;20466;-87
2022/08/22 05:12:06;;;;;;;7.67;6.50;;;20.50;51.70;;;;;;5081521;28;20501;-86
2022/08/22 05:14:39;;;;;;;7.70;6.40;;;20.60;51.90;;;;;;5089020;28;20447;-85
2022/08/22 05:17:09;;;;;;;8.10;5.80;;;20.60;51.80;;;;;;5091216;28;20577;-86
2022/08/22 05:19:40;;;;;;;7.30;6.60;;;20.60;52.10;;;;;;5093144;28;21031;-86
2022/08/22 05:22:13;;;;;;;6.97;6.27;;;20.60;52.30;;;;;;5077087;28;20962;-86
2022/08/22 05:24:45;;;;;;;9.37;7.40;;;20.60;52.60;;;;;;5094081;28;20450;-87
2022/08/22 05:27:15;;;;;;;8.20;7.40;;;20.60;52.60;;;;;;5097304;28;20441;-88
2022/08/22 05:29:49;;;;;;;8.17;6.50;;;20.60;52.40;;;;;;5095917;28;20435;-87
2022/08/22 05:32:24;;;;;;;6.70;6.00;;;20.60;52.20;;;;;;5092892;28;20478;-85
2022/08/22 05:34:58;;;;;;;12.03;7.20;;;20.60;52.10;;;;;;5091803;28;20947;-85
2022/08/22 05:37:33;;;;;;;10.53;7.23;;;20.60;52.30;;;;;;5091311;28;20438;-85
2022/08/22 05:40:01;;;;;;;9.87;6.80;;;20.70;52.70;;;;;;5093147;28;20473;-87
2022/08/22 05:42:32;;;;;;;8.53;7.07;;;20.70;52.60;;;;;;5091010;28;21164;-87
2022/08/22 05:45:01;;;;;;;9.60;6.83;;;20.70;52.70;;;;;;5092045;28;20441;-86
2022/08/22 05:47:36;;;;;;;8.20;6.17;;;20.70;52.80;;;;;;5092421;28;20431;-86
2022/08/22 05:50:10;;;;;;;12.33;5.87;;;20.70;52.70;;;;;;5094850;28;20819;-87
2022/08/22 05:52:50;;;;;;;6.80;6.10;;;20.70;52.60;;;;;;5075006;28;20924;-86
2022/08/22 05:55:24;;;;;;;8.73;7.30;;;20.80;52.60;;;;;;5093078;28;20458;-86
2022/08/22 05:58:02;;;;;;;8.60;6.10;;;20.80;52.90;;;;;;5076549;28;20868;-86
2022/08/22 06:00:34;;;;;;;8.13;7.33;;;20.80;53.10;;;;;;5092102;28;20530;-86
2022/08/22 06:03:16;;;;;;;7.70;6.90;;;20.80;53.00;;;;;;5091632;28;20567;-89
2022/08/22 06:05:50;;;;;;;8.27;7.40;;;21.00;52.80;;;;;;5094860;28;20453;-86
2022/08/22 06:08:22;;;;;;;7.43;6.73;;;21.00;52.60;;;;;;5091529;28;20470;-86
2022/08/22 06:10:53;;;;;;;10.40;7.10;;;21.00;52.30;;;;;;5093125;28;20455;-86
2022/08/22 06:13:27;;;;;;;8.23;6.53;;;21.10;52.10;;;;;;5089466;28;20471;-86
2022/08/22 06:16:02;;;;;;;8.20;6.60;;;21.10;52.20;;;;;;5094510;28;21113;-86
2022/08/22 06:18:31;;;;;;;8.57;6.70;;;21.10;52.40;;;;;;5090387;28;20467;-87
2022/08/22 06:21:03;;;;;;;7.20;6.50;;;21.10;52.20;;;;;;5092816;28;20814;-86
2022/08/22 06:23:36;;;;;;;11.30;7.30;;;21.10;52.30;;;;;;5090067;28;20566;-86
2022/08/22 06:26:05;;;;;;;7.47;6.47;;;21.10;52.70;;;;;;5089784;28;20446;-85
2022/08/22 06:28:38;;;;;;;10.67;7.20;;;21.20;52.70;;;;;;5090834;28;20455;-86
2022/08/22 06:31:08;;;;;;;11.30;6.80;;;21.30;51.70;;;;;;5093431;28;21033;-87
2022/08/22 06:33:39;;;;;;;8.00;6.47;;;21.30;52.30;;;;;;5092162;28;20475;-86
2022/08/22 06:36:32;;;;;;;11.37;6.77;;;21.30;52.10;;;;;;5092417;28;21049;-88
2022/08/22 06:39:07;;;;;;;7.83;6.33;;;21.30;51.20;;;;;;5089814;28;20986;-86
2022/08/22 06:41:39;;;;;;;16.47;6.47;;;21.10;52.30;;;;;;5090008;28;20459;-86
2022/08/22 06:44:15;;;;;;;8.60;6.30;;;21.20;52.60;;;;;;5082159;28;20554;-86
2022/08/22 06:46:45;;;;;;;7.93;6.73;;;21.30;51.10;;;;;;5081855;28;20455;-86
2022/08/22 06:49:14;;;;;;;9.03;6.33;;;21.40;51.30;;;;;;5090209;28;20536;-86
2022/08/22 06:51:44;;;;;;;7.97;7.17;;;21.50;51.40;;;;;;5090100;28;20477;-87
2022/08/22 06:54:17;;;;;;;11.03;6.50;;;21.50;51.40;;;;;;5072431;28;20800;-85
2022/08/22 06:56:47;;;;;;;7.00;5.70;;;21.60;51.40;;;;;;5091487;28;20448;-86
2022/08/22 06:59:18;;;;;;;11.77;5.80;;;21.70;51.10;;;;;;5089388;28;20448;-87
2022/08/22 07:01:51;;;;;;;9.17;5.90;;;21.80;51.00;;;;;;5093030;28;20586;-87
2022/08/22 07:04:24;;;;;;;7.60;6.90;;;21.90;50.80;;;;;;5090017;28;20561;-86
2022/08/22 07:06:55;;;;;;;9.10;6.73;;;22.10;50.70;;;;;;5090879;28;20438;-86
2022/08/22 07:09:25;;;;;;;7.70;6.57;;;22.20;50.30;;;;;;5082549;28;21239;-86
2022/08/22 07:11:54;;;;;;;11.13;6.50;;;22.20;49.50;;;;;;5090448;28;20846;-88
2022/08/22 07:14:28;;;;;;;9.20;6.07;;;22.00;49.60;;;;;;5089573;28;20505;-86
2022/08/22 07:16:58;;;;;;;12.83;6.50;;;22.10;49.90;;;;;;5091867;28;20439;-86
2022/08/22 07:19:27;;;;;;;10.67;6.47;;;22.20;49.50;;;;;;5088458;28;20494;-85
2022/08/22 07:21:57;;;;;;;12.73;6.70;;;22.20;49.40;;;;;;5088934;28;21088;-86
2022/08/22 07:24:27;;;;;;;16.47;6.50;;;22.20;49.50;;;;;;5089771;28;20470;-86
2022/08/22 07:27:11;;;;;;;7.77;6.43;;;22.20;49.50;;;;;;5089147;28;20939;-87
2022/08/22 07:29:56;;;;;;;14.07;5.33;;;22.30;49.70;;;;;;5090764;28;20479;-86
2022/08/22 07:32:40;;;;;;;12.57;6.93;;;22.60;49.80;;;;;;5089436;28;20471;-87
2022/08/22 07:35:11;;;;;;;13.53;5.60;;;22.80;49.50;;;;;;5093378;28;20450;-85
2022/08/22 07:37:58;;;;;;;7.53;5.60;;;23.10;49.10;;;;;;5087580;28;21082;-86
2022/08/22 07:40:32;;;;;;;11.20;5.50;;;23.40;48.60;;;;;;5089076;28;20454;-86
2022/08/22 07:43:04;;;;;;;14.00;5.17;;;23.60;48.10;;;;;;5094835;28;21004;-86
2022/08/22 07:45:40;;;;;;;8.77;5.40;;;23.70;48.10;;;;;;5094652;28;20455;-86
2022/08/22 07:48:23;;;;;;;7.43;5.20;;;23.90;47.80;;;;;;5094377;28;20806;-87
2022/08/22 07:51:00;;;;;;;7.73;5.10;;;24.00;47.50;;;;;;5092109;28;20939;-87
2022/08/22 07:53:37;;;;;;;17.00;5.50;;;24.10;47.50;;;;;;5095422;28;20467;-86
2022/08/22 07:56:09;;;;;;;10.33;5.30;;;24.10;47.30;;;;;;5093397;28;20461;-87
2022/08/22 07:58:39;;;;;;;6.73;5.40;;;24.30;47.20;;;;;;5097855;28;20460;-86
2022/08/22 08:01:09;;;;;;;6.20;4.77;;;24.30;47.30;;;;;;5095008;28;20440;-86
2022/08/22 08:03:38;;;;;;;5.77;4.73;;;24.40;47.20;;;;;;5093394;28;21006;-86
2022/08/22 08:06:05;;;;;;;7.00;5.10;;;24.60;47.00;;;;;;5093335;28;20481;-87
2022/08/22 08:08:40;;;;;;;5.30;4.53;;;24.70;46.80;;;;;;5083483;28;20461;-87
2022/08/22 08:11:10;;;;;;;5.17;4.77;;;24.80;46.70;;;;;;5090963;28;20455;-88
2022/08/22 08:13:42;;;;;;;14.30;5.17;;;24.90;46.70;;;;;;5075310;28;20491;-87
2022/08/22 08:16:15;;;;;;;7.30;5.50;;;25.10;46.30;;;;;;5093384;28;20462;-86
2022/08/22 08:18:43;;;;;;;6.20;5.27;;;25.20;46.30;;;;;;5090798;28;20464;-87
2022/08/22 08:21:27;;;;;;;5.43;4.93;;;25.30;46.30;;;;;;5089409;28;20468;-86
2022/08/22 08:23:56;;;;;;;8.47;5.57;;;25.30;46.30;;;;;;5091177;28;20474;-87
2022/08/22 08:26:27;;;;;;;6.90;4.60;;;25.50;46.40;;;;;;5090832;28;20443;-85
2022/08/22 08:28:57;;;;;;;6.47;4.70;;;25.70;46.10;;;;;;5091050;28;20455;-89
2022/08/22 08:31:30;;;;;;;5.60;5.10;;;25.70;46.10;;;;;;5074521;28;20450;-87
2022/08/22 08:34:03;;;;;;;13.50;5.60;;;25.90;45.50;;;;;;5091499;28;20443;-85
2022/08/22 08:36:47;;;;;;;6.47;5.30;;;26.00;45.50;;;;;;5089286;28;20461;-88
2022/08/22 08:39:22;;;;;;;5.87;5.20;;;26.10;44.90;;;;;;5087442;28;20451;-86
2022/08/22 08:42:18;;;;;;;8.60;4.93;;;26.20;44.50;;;;;;5089890;28;20479;-85
2022/08/22 08:45:11;;;;;;;5.30;4.50;;;26.10;44.60;;;;;;5053690;28;20478;-87
2022/08/22 08:48:00;;;;;;;5.47;4.33;;;26.10;44.40;;;;;;5091694;28;20440;-86
2022/08/22 08:50:44;;;;;;;4.90;4.17;;;26.30;44.30;;;;;;5092207;28;20459;-90
2022/08/22 08:53:40;;;;;;;5.23;4.40;;;26.60;43.90;;;;;;5070519;28;20459;-86
2022/08/22 08:56:19;;;;;;;6.70;4.13;;;26.80;43.60;;;;;;5071110;28;20969;-86
2022/08/22 08:58:55;;;;;;;3.00;2.80;;;26.70;37.60;;;;;;5092180;28;20443;-85
2022/08/22 09:01:44;;;;;;;5.20;3.20;;;26.70;36.30;;;;;;5088903;28;20447;-86
2022/08/22 09:04:32;;;;;;;4.63;2.77;;;26.70;38.30;;;;;;5091503;28;20586;-86
2022/08/22 09:07:35;;;;;;;3.60;3.00;;;27.10;38.00;;;;;;5091896;28;20457;-87
2022/08/22 09:10:18;;;;;;;6.10;3.00;;;27.40;36.40;;;;;;5091459;28;20438;-89
2022/08/22 09:13:00;;;;;;;3.33;2.97;;;27.60;35.10;;;;;;5082984;28;20509;-86
2022/08/22 09:15:49;;;;;;;4.60;3.20;;;27.90;34.90;;;;;;5074573;28;20432;-85
2022/08/22 09:18:48;;;;;;;3.13;2.90;;;28.10;35.10;;;;;;5094616;28;20846;-87
2022/08/22 09:21:56;;;;;;;6.80;2.87;;;28.40;34.90;;;;;;5092147;28;20453;-87
2022/08/22 09:24:43;;;;;;;6.73;3.20;;;28.50;33.30;;;;;;5044040;28;20490;-84
2022/08/22 09:27:17;;;;;;;6.30;3.27;;;28.40;33.10;;;;;;5066811;28;20462;-87
2022/08/22 09:29:49;;;;;;;7.13;3.10;;;28.20;32.90;;;;;;5093801;28;20450;-85
2022/08/22 09:32:22;;;;;;;3.40;3.13;;;28.30;33.80;;;;;;5093130;28;20516;-89
2022/08/22 09:35:03;;;;;;;5.50;3.27;;;28.60;33.20;;;;;;5077176;28;20445;-86
2022/08/22 09:37:45;;;;;;;3.00;2.67;;;28.80;32.30;;;;;;5082267;28;22728;-87
2022/08/22 09:40:20;;;;;;;3.37;3.07;;;29.10;32.70;;;;;;5093460;28;21003;-88
2022/08/22 09:42:57;;;;;;;3.33;3.03;;;29.40;32.50;;;;;;5072857;28;20467;-86
2022/08/22 09:45:39;;;;;;;3.43;2.97;;;29.60;31.00;;;;;;5089341;28;20467;-86
2022/08/22 09:48:20;;;;;;;4.30;2.90;;;29.50;31.40;;;;;;5091551;28;21130;-85
2022/08/22 09:50:51;;;;;;;3.97;2.90;;;29.50;30.90;;;;;;5091009;28;20439;-85
2022/08/22 09:53:40;;;;;;;5.30;3.00;;;29.60;30.60;;;;;;5087759;28;20463;-85
2022/08/22 09:56:11;;;;;;;3.33;2.90;;;29.80;31.00;;;;;;5090520;28;20447;-85
2022/08/22 09:58:45;;;;;;;6.60;3.43;;;30.20;31.00;;;;;;5090973;28;20440;-86
2022/08/22 10:01:24;;;;;;;2.80;2.60;;;30.30;30.50;;;;;;5088612;28;20446;-84
2022/08/22 10:04:30;;;;;;;3.40;3.10;;;30.30;29.80;;;;;;5090385;28;20459;-86
2022/08/22 10:07:04;;;;;;;5.20;2.60;;;30.30;30.00;;;;;;5066421;28;20462;-86
2022/08/22 10:09:42;;;;;;;3.20;3.00;;;30.40;30.50;;;;;;5089244;28;20453;-85
2022/08/22 10:12:13;;;;;;;3.73;3.43;;;30.60;30.00;;;;;;5087570;28;20486;-88
2022/08/22 10:14:52;;;;;;;3.80;2.90;;;31.00;29.70;;;;;;5089371;28;20475;-86
2022/08/22 10:17:26;;;;;;;3.00;2.73;;;31.00;29.10;;;;;;5072202;28;20447;-85
2022/08/22 10:19:58;;;;;;;4.23;3.20;;;30.70;29.50;;;;;;5091640;28;20481;-86
2022/08/22 10:22:36;;;;;;;3.00;2.80;;;30.90;30.00;;;;;;5088585;28;20475;-87
2022/08/22 10:25:31;;;;;;;2.70;2.50;;;31.40;28.30;;;;;;5071631;28;20994;-86
2022/08/22 10:28:22;;;;;;;2.50;2.30;;;31.50;28.70;;;;;;5090575;28;20440;-88
2022/08/22 10:31:01;;;;;;;3.30;2.80;;;31.60;27.90;;;;;;5090300;28;20534;-84
2022/08/22 10:33:35;;;;;;;3.10;2.70;;;31.70;27.60;;;;;;5070637;28;20474;-87
2022/08/22 10:36:06;;;;;;;2.80;2.60;;;31.70;27.40;;;;;;5089103;28;20485;-87
2022/08/22 10:38:38;;;;;;;3.07;2.50;;;31.90;27.00;;;;;;5089548;28;20447;-86
2022/08/22 10:41:11;;;;;;;2.90;2.57;;;32.10;26.10;;;;;;5091939;28;21085;-85
2022/08/22 10:43:46;;;;;;;4.10;2.27;;;32.30;26.20;;;;;;5088826;28;20508;-85
2022/08/22 10:46:16;;;;;;;6.30;2.30;;;32.40;26.30;;;;;;5089647;28;20450;-85
2022/08/22 10:48:49;;;;;;;3.97;2.67;;;32.50;26.00;;;;;;5089952;28;20448;-88
2022/08/22 10:51:28;;;;;;;2.93;2.70;;;32.20;25.80;;;;;;5087635;28;20452;-87
2022/08/22 10:54:03;;;;;;;3.10;2.77;;;31.90;27.20;;;;;;5076770;28;20430;-86
2022/08/22 10:56:38;;;;;;;5.57;2.90;;;31.80;26.80;;;;;;5076364;28;20449;-88
2022/08/22 10:59:17;;;;;;;3.90;2.43;;;32.00;27.40;;;;;;5073047;28;20957;-87
2022/08/22 11:01:52;;;;;;;2.70;2.50;;;32.10;27.20;;;;;;5093716;28;20534;-87
2022/08/22 11:04:33;;;;;;;4.77;2.70;;;32.40;26.80;;;;;;5091776;28;21196;-87
2022/08/22 11:07:14;;;;;;;4.93;3.00;;;32.40;26.20;;;;;;5074161;28;20446;-88
2022/08/22 11:09:43;;;;;;;4.70;2.40;;;32.30;25.90;;;;;;5074307;28;20454;-87
2022/08/22 11:12:22;;;;;;;3.70;2.37;;;32.40;25.40;;;;;;5069851;28;20473;-86
2022/08/22 11:15:04;;;;;;;2.63;2.43;;;32.50;25.90;;;;;;5075540;28;20944;-86
2022/08/22 11:18:04;;;;;;;2.50;2.17;;;32.60;26.00;;;;;;5088227;28;20454;-87
2022/08/22 11:20:43;;;;;;;3.50;2.20;;;32.50;25.80;;;;;;5088432;28;20458;-86
2022/08/22 11:23:25;;;;;;;3.30;2.50;;;32.80;25.30;;;;;;5074404;28;21329;-86
2022/08/22 11:26:03;;;;;;;3.13;2.17;;;33.20;25.10;;;;;;5088528;28;20527;-85
2022/08/22 11:28:56;;;;;;;2.57;2.33;;;33.30;24.60;;;;;;5089845;28;20444;-86
2022/08/22 11:31:32;;;;;;;3.17;2.87;;;32.90;25.20;;;;;;5090155;28;20478;-86
2022/08/22 11:34:09;;;;;;;2.83;2.33;;;32.50;25.20;;;;;;5081964;28;20542;-87
2022/08/22 11:36:41;;;;;;;3.57;2.30;;;32.30;24.80;;;;;;5079661;28;20435;-88
2022/08/22 11:39:19;;;;;;;4.20;2.40;;;32.10;25.50;;;;;;5085215;28;20439;-88
2022/08/22 11:41:59;;;;;;;5.60;2.47;;;32.40;25.70;;;;;;5090308;28;20975;-87
2022/08/22 11:44:31;;;;;;;2.27;1.93;;;33.00;25.10;;;;;;5089249;28;20478;-86
2022/08/22 11:47:00;;;;;;;2.17;2.03;;;33.20;24.60;;;;;;5080182;28;20455;-86
2022/08/22 11:49:36;;;;;;;2.40;2.20;;;33.20;24.30;;;;;;5090213;28;20458;-87
2022/08/22 11:52:24;;;;;;;2.80;2.47;;;33.30;24.40;;;;;;5090119;28;20549;-85
2022/08/22 11:55:18;;;;;;;2.10;2.00;;;33.70;24.70;;;;;;5090078;28;20447;-87
2022/08/22 11:57:48;;;;;;;3.00;2.30;;;33.90;24.00;;;;;;5074334;28;20474;-86
2022/08/22 12:00:23;;;;;;;3.33;2.37;;;33.80;22.90;;;;;;5090957;28;20478;-87
2022/08/22 12:03:22;;;;;;;3.23;1.70;;;33.90;23.10;;;;;;5092591;28;20559;-87
2022/08/22 12:05:54;;;;;;;3.03;2.00;;;34.00;22.80;;;;;;5053874;28;21113;-86
2022/08/22 12:08:45;;;;;;;3.30;2.87;;;34.20;22.90;;;;;;5092254;28;20451;-85
2022/08/22 12:11:22;;;;;;;3.40;2.20;;;34.00;22.60;;;;;;5047851;28;20447;-86
2022/08/22 12:13:52;;;;;;;2.20;2.00;;;34.10;22.90;;;;;;5074034;28;20970;-86
2022/08/22 12:16:26;;;;;;;3.97;2.47;;;34.10;22.80;;;;;;5073165;28;20454;-86
2022/08/22 12:19:01;;;;;;;3.70;2.10;;;33.80;23.00;;;;;;5084455;28;20459;-87
2022/08/22 12:22:11;;;;;;;3.77;2.40;;;33.60;22.50;;;;;;5073116;28;20480;-88
2022/08/22 12:24:57;;;;;;;3.70;2.70;;;33.10;23.10;;;;;;5091543;28;20463;-88
2022/08/22 12:27:45;;;;;;;2.13;1.93;;;32.60;24.10;;;;;;5091359;28;20972;-87
2022/08/22 12:30:19;;;;;;;2.60;2.20;;;32.60;24.00;;;;;;5077868;28;20439;-86
2022/08/22 12:33:16;;;;;;;4.03;2.30;;;32.40;23.90;;;;;;5096016;28;20478;-87
2022/08/22 12:35:54;;;;;;;2.73;1.87;;;32.40;24.20;;;;;;5096233;28;20449;-87
2022/08/22 12:38:37;;;;;;;4.03;3.63;;;32.40;24.10;;;;;;5093387;28;20906;-86
2022/08/22 12:41:22;;;;;;;3.10;2.60;;;32.60;23.30;;;;;;5078508;28;20514;-86
2022/08/22 12:44:02;;;;;;;4.27;2.60;;;32.80;23.50;;;;;;5094839;28;20467;-87
2022/08/22 12:46:42;;;;;;;5.87;2.27;;;33.00;23.40;;;;;;5093397;28;20995;-86
2022/08/22 12:49:23;;;;;;;3.10;2.17;;;33.50;23.50;;;;;;5093375;28;21146;-85
2022/08/22 12:52:08;;;;;;;3.33;2.57;;;33.50;22.90;;;;;;5091899;28;20974;-86
2022/08/22 12:55:00;;;;;;;3.33;2.67;;;33.70;22.50;;;;;;5076972;28;20439;-86
2022/08/22 12:57:40;;;;;;;5.00;2.13;;;34.10;22.50;;;;;;5092910;28;20540;-85
2022/08/22 13:00:19;;;;;;;3.50;1.87;;;34.30;21.10;;;;;;5094959;28;21005;-86
2022/08/22 13:02:51;;;;;;;2.43;2.13;;;34.30;22.10;;;;;;5095231;28;20471;-88
2022/08/22 13:05:22;;;;;;;2.80;2.47;;;34.20;21.40;;;;;;5093166;28;20464;-89
2022/08/22 13:07:53;;;;;;;1.97;1.63;;;33.90;21.30;;;;;;5059409;28;21305;-89
2022/08/22 13:10:39;;;;;;;9.93;2.07;;;34.30;21.00;;;;;;5095563;28;21048;-89
2022/08/22 13:13:11;;;;;;;2.10;2.00;;;34.60;21.60;;;;;;5096054;28;20463;-89
2022/08/22 13:15:44;;;;;;;3.23;2.17;;;34.80;21.00;;;;;;5095089;28;20435;-89
2022/08/22 13:18:18;;;;;;;4.70;2.50;;;35.10;21.40;;;;;;5077010;28;20475;-88
2022/08/22 13:20:49;;;;;;;4.90;1.80;;;35.30;21.30;;;;;;5075786;28;20444;-89
2022/08/22 13:23:21;;;;;;;3.73;2.00;;;35.30;20.90;;;;;;5091054;28;20849;-89
2022/08/22 13:26:01;;;;;;;3.00;1.80;;;35.10;20.70;;;;;;5092153;28;20517;-88
2022/08/22 13:28:35;;;;;;;3.57;2.30;;;34.80;21.50;;;;;;5094467;28;20500;-89
2022/08/22 13:31:04;;;;;;;3.17;2.00;;;34.50;21.20;;;;;;5079269;28;20452;-89
2022/08/22 13:33:45;;;;;;;2.97;2.00;;;34.40;21.50;;;;;;5060578;28;21064;-89
2022/08/22 13:36:17;;;;;;;7.73;2.20;;;34.00;21.50;;;;;;5092872;28;20542;-88
2022/08/22 13:38:52;;;;;;;3.70;1.80;;;33.60;21.90;;;;;;5059293;28;20463;-88
2022/08/22 13:41:23;;;;;;;3.40;2.20;;;33.20;22.30;;;;;;5075331;28;20528;-88
2022/08/22 13:44:16;;;;;;;1.90;1.80;;;32.90;22.60;;;;;;5087729;28;21351;-89
2022/08/22 13:46:46;;;;;;;3.40;2.03;;;33.00;22.70;;;;;;5062977;28;20843;-89